Time;durP1;ratioP1;P1;durP2;ratioP2;P2;SDS_P1;SDS_P2;PMS_P1;PMS_P2;Temp;Humidity;BMP_temperature;BMP_pressure;BME280_temperature;BME280_humidity;BME280_pressure;Samples;Min_cycle;Max_cycle;Signal;HPM_P1;HPM_P2
2023/12/11 00:00:10;;;;;;;;;;;10.70;99.90;;;;;;5038938;28;19912;-62
2023/12/11 00:02:38;;;;;;;;;;;10.70;99.90;;;;;;5042519;28;20642;-63
2023/12/11 00:05:04;;;;;;;;;;;10.70;99.90;;;;;;5042813;28;19960;-63
2023/12/11 00:07:30;;;;;;;;;;;10.80;99.90;;;;;;5042177;28;19956;-62
2023/12/11 00:09:55;;;;;;;;;;;10.80;99.90;;;;;;5038702;28;19920;-62
2023/12/11 00:12:23;;;;;;;;;;;10.80;99.90;;;;;;5043642;28;19931;-63
2023/12/11 00:14:48;;;;;;;;;;;10.80;99.90;;;;;;5039060;28;19924;-63
2023/12/11 00:17:16;;;;;;;;;;;10.90;99.90;;;;;;5050543;28;19962;-62
2023/12/11 00:19:42;;;;;;;;;;;10.90;99.90;;;;;;5042994;28;19917;-62
2023/12/11 00:22:10;;;;;;;;;;;10.80;99.90;;;;;;5042427;28;19920;-62
2023/12/11 00:24:35;;;;;;;;;;;10.80;99.90;;;;;;5042303;28;19970;-62
2023/12/11 00:27:01;;;;;;;;;;;10.80;99.90;;;;;;5042643;28;20732;-62
2023/12/11 00:29:28;;;;;;;;;;;10.80;99.90;;;;;;5040396;28;19954;-62
2023/12/11 00:31:54;;;;;;;;;;;10.80;99.90;;;;;;5043289;28;19928;-62
2023/12/11 00:34:19;;;;;;;;;;;10.80;99.90;;;;;;5042091;28;19962;-62
2023/12/11 00:36:47;;;;;;;;;;;10.80;99.90;;;;;;5042410;28;20896;-63
2023/12/11 00:39:16;;;;;;;;;;;10.70;99.90;;;;;;5043415;28;19920;-63
2023/12/11 00:41:45;;;;;;;;;;;10.70;99.90;;;;;;5045862;28;19926;-62
2023/12/11 00:44:13;;;;;;;;;;;10.70;99.90;;;;;;5031857;28;19920;-62
2023/12/11 00:46:39;;;;;;;;;;;10.70;99.90;;;;;;5048927;22;21193;-62
2023/12/11 00:49:04;;;;;;;;;;;10.70;99.90;;;;;;4990057;28;19925;-63
2023/12/11 00:51:30;;;;;;;;;;;10.60;99.90;;;;;;4993827;28;19975;-63
2023/12/11 00:53:55;;;;;;;;;;;10.70;99.90;;;;;;4996632;28;20019;-63
2023/12/11 00:56:23;;;;;;;;;;;10.70;99.90;;;;;;4997641;28;19916;-63
2023/12/11 00:58:49;;;;;;;;;;;10.70;99.90;;;;;;4991606;28;19936;-62
2023/12/11 01:01:14;;;;;;;;;;;10.70;99.90;;;;;;4993664;28;20036;-63
2023/12/11 01:03:42;;;;;;;;;;;10.70;99.90;;;;;;4994249;28;20529;-62
2023/12/11 01:06:10;;;;;;;;;;;10.70;99.90;;;;;;4994506;28;20016;-63
2023/12/11 01:08:39;;;;;;;;;;;10.60;99.90;;;;;;4992628;28;19949;-63
2023/12/11 01:11:05;;;;;;;;;;;10.60;99.90;;;;;;4993788;28;20529;-63
2023/12/11 01:13:37;;;;;;;;;;;10.70;99.90;;;;;;4995650;28;19960;-63
2023/12/11 01:16:03;;;;;;;;;;;10.60;99.90;;;;;;4976094;28;19928;-63
2023/12/11 01:18:29;;;;;;;;;;;10.60;99.90;;;;;;4993274;28;19917;-63
2023/12/11 01:20:54;;;;;;;;;;;10.60;99.90;;;;;;4994614;28;19921;-63
2023/12/11 01:23:20;;;;;;;;;;;10.60;99.90;;;;;;4990793;28;19927;-63
2023/12/11 01:25:45;;;;;;;;;;;10.60;99.90;;;;;;4989584;28;19960;-63
2023/12/11 01:28:11;;;;;;;;;;;10.60;99.90;;;;;;4980905;28;19921;-63
2023/12/11 01:30:36;;;;;;;;;;;10.60;99.90;;;;;;4991658;28;21409;-63
2023/12/11 01:33:03;;;;;;;;;;;10.60;99.90;;;;;;4992706;28;19921;-63
2023/12/11 01:35:28;;;;;;;;;;;10.60;99.90;;;;;;4993965;28;19924;-63
2023/12/11 01:37:54;;;;;;;;;;;10.70;99.90;;;;;;4993441;28;19922;-63
2023/12/11 01:40:19;;;;;;;;;;;10.60;99.90;;;;;;4994437;28;20117;-63
2023/12/11 01:42:45;;;;;;;;;;;10.70;99.90;;;;;;4977842;28;21416;-63
2023/12/11 01:45:10;;;;;;;;;;;10.70;99.90;;;;;;4990899;28;19928;-63
2023/12/11 01:47:36;;;;;;;;;;;10.70;99.90;;;;;;4989925;28;19931;-63
2023/12/11 01:50:02;;;;;;;;;;;10.70;99.90;;;;;;4995385;28;19932;-63
2023/12/11 01:52:27;;;;;;;;;;;10.80;99.90;;;;;;4993203;28;19925;-63
2023/12/11 01:54:58;;;;;;;;;;;10.70;99.90;;;;;;4991880;28;20360;-63
2023/12/11 01:57:26;;;;;;;;;;;10.70;99.90;;;;;;4996907;28;19921;-63
2023/12/11 01:59:51;;;;;;;;;;;10.80;99.90;;;;;;4992005;28;20028;-63
2023/12/11 02:02:22;;;;;;;;;;;10.80;99.90;;;;;;4979614;28;19925;-63
2023/12/11 02:04:53;;;;;;;;;;;10.80;99.90;;;;;;4969261;28;23027;-63
2023/12/11 02:07:21;;;;;;;;;;;10.80;99.90;;;;;;4991234;28;19921;-63
2023/12/11 02:09:47;;;;;;;;;;;10.80;99.90;;;;;;4990597;28;20016;-63
2023/12/11 02:12:12;;;;;;;;;;;10.80;99.90;;;;;;5099731;22;20431;-89
2023/12/11 02:14:39;;;;;;;;;;;10.80;99.90;;;;;;5094887;28;19916;-89
2023/12/11 02:17:08;;;;;;;;;;;10.80;99.90;;;;;;5072977;28;19986;-89
2023/12/11 02:19:33;;;;;;;;;;;10.80;99.90;;;;;;5069683;28;20003;-88
2023/12/11 02:21:59;;;;;;;;;;;10.80;99.90;;;;;;5071863;28;20333;-91
2023/12/11 02:24:27;;;;;;;;;;;10.70;99.90;;;;;;5088250;27;19920;-90
2023/12/11 02:26:53;;;;;;;;;;;10.70;99.90;;;;;;5082355;28;19916;-90
2023/12/11 02:29:20;;;;;;;;;;;10.70;99.90;;;;;;5069962;28;19920;-89
2023/12/11 02:31:45;;;;;;;;;;;10.70;99.90;;;;;;5072911;28;19920;-91
2023/12/11 02:34:11;;;;;;;;;;;10.70;99.90;;;;;;5071694;28;20600;-90
2023/12/11 02:36:37;;;;;;;;;;;10.70;99.90;;;;;;5069142;28;20403;-92
2023/12/11 02:39:02;;;;;;;;;;;10.70;99.90;;;;;;5070564;28;20563;-89
2023/12/11 02:41:28;;;;;;;;;;;10.70;99.90;;;;;;5071879;28;20503;-91
2023/12/11 02:43:55;;;;;;;;;;;10.70;99.90;;;;;;5073879;28;19923;-90
2023/12/11 02:46:20;;;;;;;;;;;10.70;99.90;;;;;;5071787;28;19951;-89
2023/12/11 02:48:48;;;;;;;;;;;10.70;99.90;;;;;;5072355;28;20046;-90
2023/12/11 02:51:14;;;;;;;;;;;10.70;99.90;;;;;;5071796;28;19928;-90
2023/12/11 02:53:40;;;;;;;;;;;10.70;99.90;;;;;;5068652;28;20365;-90
2023/12/11 02:56:06;;;;;;;;;;;10.70;99.90;;;;;;5071518;28;20395;-90
2023/12/11 02:58:31;;;;;;;;;;;10.70;99.90;;;;;;5071213;28;19927;-90
2023/12/11 03:00:58;;;;;;;;;;;10.70;99.90;;;;;;5072082;28;19920;-91
2023/12/11 03:03:24;;;;;;;;;;;10.70;99.90;;;;;;5071033;28;20011;-90
2023/12/11 03:05:50;;;;;;;;;;;10.70;99.90;;;;;;5070331;28;20356;-90
2023/12/11 03:08:15;;;;;;;;;;;10.70;99.90;;;;;;5070882;28;19977;-88
2023/12/11 03:10:41;;;;;;;;;;;10.70;99.90;;;;;;5070660;28;19920;-89
2023/12/11 03:13:06;;;;;;;;;;;10.70;99.90;;;;;;5072225;28;20616;-91
2023/12/11 03:15:32;;;;;;;;;;;10.70;99.90;;;;;;5068696;28;19923;-91
2023/12/11 03:17:58;;;;;;;;;;;10.60;99.90;;;;;;5076040;28;19997;-90
2023/12/11 03:20:24;;;;;;;;;;;10.60;99.90;;;;;;5070602;28;19923;-90
2023/12/11 03:22:49;;;;;;;;;;;10.60;99.90;;;;;;5070649;28;19924;-89
2023/12/11 03:25:15;;;;;;;;;;;10.60;99.90;;;;;;5046501;28;19927;-87
2023/12/11 03:27:40;;;;;;;;;;;10.60;99.90;;;;;;5070602;28;19932;-90
2023/12/11 03:30:06;;;;;;;;;;;10.60;99.90;;;;;;5074016;28;19928;-88
2023/12/11 03:32:32;;;;;;;;;;;10.70;99.90;;;;;;5077067;28;20015;-89
2023/12/11 03:34:57;;;;;;;;;;;10.60;99.90;;;;;;5076085;28;19916;-90
2023/12/11 03:37:23;;;;;;;;;;;10.60;99.90;;;;;;5067818;28;19965;-86
2023/12/11 03:39:48;;;;;;;;;;;10.60;99.90;;;;;;5074841;28;19931;-86
2023/12/11 03:42:16;;;;;;;;;;;10.70;99.90;;;;;;5076587;28;20005;-91
2023/12/11 03:44:42;;;;;;;;;;;10.70;99.90;;;;;;5072319;28;19916;-89
2023/12/11 03:47:07;;;;;;;;;;;10.60;99.90;;;;;;5074822;28;19972;-88
2023/12/11 03:49:33;;;;;;;;;;;10.60;99.90;;;;;;5075493;28;19927;-89
2023/12/11 03:51:59;;;;;;;;;;;10.70;99.90;;;;;;5079025;28;19924;-88
2023/12/11 03:54:24;;;;;;;;;;;10.60;99.90;;;;;;5071031;28;19920;-88
2023/12/11 03:56:50;;;;;;;;;;;10.60;99.90;;;;;;5075057;28;20377;-87
2023/12/11 03:59:15;;;;;;;;;;;10.60;99.90;;;;;;5074491;28;19916;-89
2023/12/11 04:01:44;;;;;;;;;;;10.60;99.90;;;;;;5073390;28;19920;-87
2023/12/11 04:04:11;;;;;;;;;;;10.50;99.90;;;;;;5075369;28;19923;-89
2023/12/11 04:06:36;;;;;;;;;;;10.60;99.90;;;;;;5075333;28;19920;-90
2023/12/11 04:09:04;;;;;;;;;;;10.50;99.90;;;;;;5074794;28;20324;-89
2023/12/11 04:11:30;;;;;;;;;;;10.50;99.90;;;;;;5075433;28;19923;-87
2023/12/11 04:13:55;;;;;;;;;;;10.50;99.90;;;;;;5077438;28;19920;-90
2023/12/11 04:16:21;;;;;;;;;;;10.50;99.90;;;;;;5076087;28;19942;-92
2023/12/11 04:18:46;;;;;;;;;;;10.40;99.90;;;;;;5076390;28;20397;-89
2023/12/11 04:21:12;;;;;;;;;;;10.40;99.90;;;;;;5080529;28;20058;-91
2023/12/11 04:23:40;;;;;;;;;;;10.40;99.90;;;;;;5073958;28;19916;-90
2023/12/11 04:26:13;;;;;;;;;;;10.40;99.90;;;;;;5074852;28;19970;-89
2023/12/11 04:28:41;;;;;;;;;;;10.40;99.90;;;;;;5073202;28;19923;-91
2023/12/11 04:31:09;;;;;;;;;;;10.30;99.90;;;;;;5073019;28;20598;-91
2023/12/11 04:33:37;;;;;;;;;;;10.40;99.90;;;;;;5075026;28;19936;-88
2023/12/11 04:36:05;;;;;;;;;;;10.30;99.90;;;;;;5073762;28;20006;-90
2023/12/11 04:38:30;;;;;;;;;;;10.40;99.90;;;;;;5072331;28;19928;-90
2023/12/11 04:40:56;;;;;;;;;;;10.40;99.90;;;;;;5075576;28;20346;-90
2023/12/11 04:43:23;;;;;;;;;;;10.40;99.90;;;;;;5074864;28;19962;-90
2023/12/11 04:45:49;;;;;;;;;;;10.40;99.90;;;;;;5073942;28;19927;-86
2023/12/11 04:48:14;;;;;;;;;;;10.40;99.90;;;;;;5074181;28;19920;-90
2023/12/11 04:50:40;;;;;;;;;;;10.40;99.90;;;;;;5071455;28;19920;-89
2023/12/11 04:53:05;;;;;;;;;;;10.40;99.90;;;;;;5074712;28;20050;-88
2023/12/11 04:55:31;;;;;;;;;;;10.40;99.90;;;;;;5074775;28;20524;-88
2023/12/11 04:57:57;;;;;;;;;;;10.40;99.90;;;;;;5067132;28;19921;-87
2023/12/11 05:00:22;;;;;;;;;;;10.40;99.90;;;;;;5075758;28;19927;-90
2023/12/11 05:02:48;;;;;;;;;;;10.50;99.90;;;;;;5074344;28;19957;-90
2023/12/11 05:05:15;;;;;;;;;;;10.50;99.90;;;;;;5075250;28;19920;-88
2023/12/11 05:07:41;;;;;;;;;;;10.40;99.90;;;;;;5075400;28;19961;-89
2023/12/11 05:10:07;;;;;;;;;;;10.50;99.90;;;;;;5075122;28;20361;-90
2023/12/11 05:12:32;;;;;;;;;;;10.50;99.90;;;;;;5074342;28;19924;-88
2023/12/11 05:15:01;;;;;;;;;;;10.40;99.90;;;;;;5074998;28;19978;-89
2023/12/11 05:17:27;;;;;;;;;;;10.40;99.90;;;;;;5072128;28;20178;-88
2023/12/11 05:19:53;;;;;;;;;;;10.40;99.90;;;;;;5072352;28;19943;-87
2023/12/11 05:22:18;;;;;;;;;;;10.50;99.90;;;;;;5067016;28;19946;-89
2023/12/11 05:24:44;;;;;;;;;;;10.50;99.90;;;;;;5075653;28;20521;-88
2023/12/11 05:27:12;;;;;;;;;;;10.40;99.90;;;;;;5073071;28;19920;-89
2023/12/11 05:29:40;;;;;;;;;;;10.40;99.90;;;;;;5073033;28;19923;-88
2023/12/11 05:32:05;;;;;;;;;;;10.40;99.90;;;;;;5073713;28;19924;-89
2023/12/11 05:34:31;;;;;;;;;;;10.40;99.90;;;;;;5073336;28;19916;-88
2023/12/11 05:36:56;;;;;;;;;;;10.40;99.90;;;;;;5072036;28;20512;-90
2023/12/11 05:39:22;;;;;;;;;;;10.40;99.90;;;;;;5058340;28;19926;-89
2023/12/11 05:41:50;;;;;;;;;;;10.40;99.90;;;;;;5073276;28;19979;-87
2023/12/11 05:44:15;;;;;;;;;;;10.40;99.90;;;;;;5072636;28;20095;-88
2023/12/11 05:46:41;;;;;;;;;;;10.40;99.90;;;;;;5058134;28;20308;-91
2023/12/11 05:49:06;;;;;;;;;;;10.50;99.90;;;;;;5073903;28;19927;-89
2023/12/11 05:51:32;;;;;;;;;;;10.50;99.90;;;;;;5072218;28;20015;-89
2023/12/11 05:53:57;;;;;;;;;;;10.40;99.90;;;;;;5073247;28;20295;-90
2023/12/11 05:56:23;;;;;;;;;;;10.50;99.90;;;;;;5071418;28;19916;-89
2023/12/11 05:58:49;;;;;;;;;;;10.40;99.90;;;;;;5073026;28;19928;-90
2023/12/11 06:01:15;;;;;;;;;;;10.40;99.90;;;;;;5070581;28;19916;-89
2023/12/11 06:03:41;;;;;;;;;;;10.40;99.90;;;;;;5072497;28;20021;-90
2023/12/11 06:06:14;;;;;;;;;;;10.40;99.90;;;;;;5073766;28;19942;-89
2023/12/11 06:08:39;;;;;;;;;;;10.40;99.90;;;;;;5073190;28;19924;-88
2023/12/11 06:11:05;;;;;;;;;;;10.40;99.90;;;;;;5072068;28;20409;-91
2023/12/11 06:13:30;;;;;;;;;;;10.40;99.90;;;;;;5072453;28;19979;-90
2023/12/11 06:15:56;;;;;;;;;;;10.40;99.90;;;;;;5072558;28;20352;-87
2023/12/11 06:18:21;;;;;;;;;;;10.50;99.90;;;;;;5072356;28;19920;-90
2023/12/11 06:20:47;;;;;;;;;;;10.50;99.90;;;;;;5069735;28;19920;-88
2023/12/11 06:23:13;;;;;;;;;;;10.40;99.90;;;;;;5072649;28;19970;-88
2023/12/11 06:25:38;;;;;;;;;;;10.40;99.90;;;;;;5074618;28;20890;-90
2023/12/11 06:28:04;;;;;;;;;;;10.40;99.90;;;;;;5073707;28;20412;-91
2023/12/11 06:30:30;;;;;;;;;;;10.40;99.90;;;;;;5073984;28;19954;-92
2023/12/11 06:32:56;;;;;;;;;;;10.40;99.90;;;;;;5075190;28;19931;-91
2023/12/11 06:35:21;;;;;;;;;;;10.40;99.90;;;;;;5073497;28;19931;-92
2023/12/11 06:37:50;;;;;;;;;;;10.40;99.90;;;;;;5077252;28;19920;-90
2023/12/11 06:40:15;;;;;;;;;;;10.40;99.90;;;;;;5075367;28;19920;-91
2023/12/11 06:42:41;;;;;;;;;;;10.40;99.90;;;;;;5082004;28;19947;-88
2023/12/11 06:45:08;;;;;;;;;;;10.30;99.90;;;;;;5087806;27;21310;-91
2023/12/11 06:47:34;;;;;;;;;;;10.30;99.90;;;;;;5081739;28;20359;-89
2023/12/11 06:50:00;;;;;;;;;;;10.30;99.90;;;;;;5084241;28;19915;-90
2023/12/11 06:52:26;;;;;;;;;;;10.30;99.90;;;;;;5081138;28;19966;-89
2023/12/11 06:54:51;;;;;;;;;;;10.30;99.90;;;;;;5072252;28;19965;-90
2023/12/11 06:57:17;;;;;;;;;;;10.20;99.90;;;;;;5075684;28;19924;-91
2023/12/11 06:59:42;;;;;;;;;;;10.10;99.90;;;;;;5076373;28;19920;-90
2023/12/11 07:02:08;;;;;;;;;;;10.10;99.90;;;;;;5075827;28;19989;-90
2023/12/11 07:04:33;;;;;;;;;;;10.20;99.90;;;;;;5074452;28;19971;-90
2023/12/11 07:06:59;;;;;;;;;;;10.20;99.90;;;;;;5074582;28;19999;-90
2023/12/11 07:09:29;;;;;;;;;;;10.10;99.90;;;;;;5071407;28;20007;-92
2023/12/11 07:11:57;;;;;;;;;;;10.20;99.90;;;;;;5069699;28;19924;-91
2023/12/11 07:14:25;;;;;;;;;;;10.20;99.90;;;;;;5074698;28;20130;-92
2023/12/11 07:16:56;;;;;;;;;;;10.10;99.90;;;;;;5075360;28;19955;-89
2023/12/11 07:19:42;;;;;;;;;;;10.10;99.90;;;;;;5074655;28;19917;-90
2023/12/11 07:22:08;;;;;;;;;;;10.10;99.90;;;;;;5075319;28;20405;-91
2023/12/11 07:24:36;;;;;;;;;;;10.10;99.90;;;;;;5076339;28;19920;-91
2023/12/11 07:27:02;;;;;;;;;;;10.10;99.90;;;;;;5073537;28;19917;-89
2023/12/11 07:29:27;;;;;;;;;;;10.00;99.90;;;;;;5075148;28;20017;-90
2023/12/11 07:31:53;;;;;;;;;;;10.00;99.90;;;;;;5075918;28;20010;-90
2023/12/11 07:34:22;;;;;;;;;;;10.00;99.90;;;;;;5072460;28;20293;-91
2023/12/11 07:36:51;;;;;;;;;;;10.00;99.90;;;;;;5086351;28;20003;-91
2023/12/11 07:39:16;;;;;;;;;;;10.00;99.90;;;;;;5070571;28;20506;-91
2023/12/11 07:41:42;;;;;;;;;;;10.10;99.90;;;;;;5068084;28;20459;-91
2023/12/11 07:44:10;;;;;;;;;;;10.10;99.90;;;;;;5073745;28;19927;-92
2023/12/11 07:46:35;;;;;;;;;;;10.10;99.90;;;;;;5070872;28;20110;-90
2023/12/11 07:49:01;;;;;;;;;;;10.10;99.90;;;;;;5054487;28;20505;-87
2023/12/11 07:51:28;;;;;;;;;;;10.10;99.90;;;;;;5056199;28;20141;-91
2023/12/11 07:53:55;;;;;;;;;;;10.10;99.90;;;;;;5071645;28;19920;-90
2023/12/11 07:56:21;;;;;;;;;;;10.20;99.90;;;;;;5077222;28;19947;-91
2023/12/11 07:58:47;;;;;;;;;;;10.10;99.90;;;;;;5075016;28;22267;-90
2023/12/11 08:01:13;;;;;;;;;;;10.10;99.90;;;;;;5066981;28;19916;-91
2023/12/11 08:03:38;;;;;;;;;;;10.10;99.90;;;;;;5070464;28;19962;-91
2023/12/11 08:06:04;;;;;;;;;;;10.10;99.90;;;;;;5070071;28;20003;-91
2023/12/11 08:08:32;;;;;;;;;;;10.10;99.90;;;;;;5072771;28;20434;-91
2023/12/11 08:10:57;;;;;;;;;;;10.10;99.90;;;;;;5072054;28;19928;-89
2023/12/11 08:13:23;;;;;;;;;;;10.10;99.90;;;;;;5073917;28;20329;-92
2023/12/11 08:15:48;;;;;;;;;;;10.20;99.90;;;;;;5074553;28;19955;-92
2023/12/11 08:18:14;;;;;;;;;;;10.20;99.90;;;;;;5076287;28;19920;-91
2023/12/11 08:20:39;;;;;;;;;;;10.10;99.90;;;;;;5078832;28;19916;-90
2023/12/11 08:23:07;;;;;;;;;;;10.10;99.90;;;;;;5076017;28;19954;-90
2023/12/11 08:25:35;;;;;;;;;;;10.10;99.90;;;;;;5093186;27;19912;-90
2023/12/11 08:28:01;;;;;;;;;;;10.20;99.90;;;;;;5077822;28;19999;-91
2023/12/11 08:30:26;;;;;;;;;;;10.20;99.90;;;;;;5082369;28;20010;-90
2023/12/11 08:32:52;;;;;;;;;;;10.20;99.90;;;;;;5082878;28;20566;-92
2023/12/11 08:35:17;;;;;;;;;;;10.20;99.90;;;;;;5080014;28;19920;-89
2023/12/11 08:37:43;;;;;;;;;;;10.10;99.90;;;;;;5080745;28;20014;-89
2023/12/11 08:40:09;;;;;;;;;;;10.10;99.90;;;;;;5082090;28;20443;-90
2023/12/11 08:42:37;;;;;;;;;;;10.10;99.90;;;;;;5081008;28;19919;-89
2023/12/11 08:45:03;;;;;;;;;;;10.20;99.90;;;;;;5089796;28;19923;-90
2023/12/11 08:47:29;;;;;;;;;;;10.20;99.90;;;;;;5082965;28;19916;-90
2023/12/11 08:49:57;;;;;;;;;;;10.20;99.90;;;;;;5082189;28;20880;-90
2023/12/11 08:52:23;;;;;;;;;;;10.20;99.90;;;;;;5080395;28;19932;-90
2023/12/11 08:54:50;;;;;;;;;;;10.20;99.90;;;;;;5082763;28;19916;-88
2023/12/11 08:57:18;;;;;;;;;;;10.20;99.90;;;;;;5080341;28;19913;-90
2023/12/11 08:59:44;;;;;;;;;;;10.20;99.90;;;;;;5083475;28;20419;-91
2023/12/11 09:02:09;;;;;;;;;;;10.30;99.90;;;;;;5089611;27;19931;-91
2023/12/11 09:04:35;;;;;;;;;;;10.20;99.90;;;;;;5075839;28;19925;-89
2023/12/11 09:07:00;;;;;;;;;;;10.30;99.90;;;;;;5074156;28;20291;-90
2023/12/11 09:09:26;;;;;;;;;;;10.20;99.90;;;;;;5071185;28;19947;-90
2023/12/11 09:11:52;;;;;;;;;;;10.30;99.90;;;;;;5075140;28;19932;-92
2023/12/11 09:14:17;;;;;;;;;;;10.30;99.90;;;;;;5075872;28;19962;-90
2023/12/11 09:16:43;;;;;;;;;;;10.30;99.90;;;;;;5074316;28;21916;-91
2023/12/11 09:19:09;;;;;;;;;;;10.40;99.90;;;;;;5074664;28;19912;-91
2023/12/11 09:21:37;;;;;;;;;;;10.40;99.90;;;;;;5073744;28;19916;-90
2023/12/11 09:24:03;;;;;;;;;;;10.40;99.90;;;;;;5076595;28;19947;-89
2023/12/11 09:26:29;;;;;;;;;;;10.40;99.90;;;;;;5074411;28;20580;-90
2023/12/11 09:28:54;;;;;;;;;;;10.40;99.90;;;;;;5076156;28;20391;-90
2023/12/11 09:31:23;;;;;;;;;;;10.40;99.90;;;;;;5074168;28;20003;-92
2023/12/11 09:33:49;;;;;;;;;;;10.40;99.90;;;;;;5075286;28;20117;-90
2023/12/11 09:36:15;;;;;;;;;;;10.40;99.90;;;;;;5077862;28;20740;-90
2023/12/11 09:38:42;;;;;;;;;;;10.40;99.90;;;;;;5079649;28;19912;-92
2023/12/11 09:41:13;;;;;;;;;;;10.40;99.90;;;;;;5079492;28;19927;-91
2023/12/11 09:43:41;;;;;;;;;;;10.30;99.90;;;;;;5076183;28;19930;-89
2023/12/11 09:46:08;;;;;;;;;;;10.40;99.90;;;;;;5090745;28;19920;-91
2023/12/11 09:48:33;;;;;;;;;;;10.30;99.90;;;;;;5074653;28;22463;-92
2023/12/11 09:51:00;;;;;;;;;;;10.40;99.90;;;;;;5074393;28;19920;-90
2023/12/11 09:53:30;;;;;;;;;;;10.30;99.90;;;;;;5075399;28;19923;-92
2023/12/11 09:55:56;;;;;;;;;;;10.30;99.90;;;;;;5063922;28;20554;-92
2023/12/11 09:58:22;;;;;;;;;;;10.40;99.90;;;;;;5068031;28;20374;-91
2023/12/11 10:00:47;;;;;;;;;;;10.40;99.90;;;;;;5073876;28;19934;-90
2023/12/11 10:03:13;;;;;;;;;;;10.40;99.90;;;;;;5074455;28;19919;-92
2023/12/11 10:05:38;;;;;;;;;;;10.40;99.90;;;;;;5076948;28;19966;-92
2023/12/11 10:08:04;;;;;;;;;;;10.40;99.90;;;;;;5096878;27;20291;-91
2023/12/11 10:10:31;;;;;;;;;;;10.40;99.90;;;;;;5078382;28;19912;-91
2023/12/11 10:12:58;;;;;;;;;;;10.40;99.90;;;;;;5081407;28;19935;-90
2023/12/11 10:15:25;;;;;;;;;;;10.30;99.90;;;;;;5079150;28;19935;-92
2023/12/11 10:18:02;;;;;;;;;;;10.30;99.90;;;;;;5064978;28;19920;-91
2023/12/11 10:20:27;;;;;;;;;;;10.40;99.90;;;;;;5074413;28;19969;-91
2023/12/11 10:22:53;;;;;;;;;;;10.40;99.90;;;;;;5075676;28;19924;-92
2023/12/11 10:25:28;;;;;;;;;;;10.40;99.90;;;;;;5075876;28;19920;-93
2023/12/11 10:28:03;;;;;;;;;;;10.40;99.90;;;;;;5083031;28;20687;-92
2023/12/11 10:30:29;;;;;;;;;;;10.40;99.90;;;;;;5073321;28;19939;-93
2023/12/11 10:32:59;;;;;;;;;;;10.40;99.90;;;;;;5074340;28;19955;-92
2023/12/11 10:35:25;;;;;;;;;;;10.30;99.90;;;;;;5078896;28;19912;-93
2023/12/11 10:37:50;;;;;;;;;;;10.40;99.90;;;;;;5075745;28;20728;-89
2023/12/11 10:40:16;;;;;;;;;;;10.40;99.90;;;;;;5077043;28;19927;-91
2023/12/11 10:42:42;;;;;;;;;;;10.30;99.90;;;;;;5081237;28;19916;-89
2023/12/11 10:45:07;;;;;;;;;;;10.30;99.90;;;;;;5073507;28;19927;-91
2023/12/11 10:47:33;;;;;;;;;;;10.30;99.90;;;;;;5077044;28;20372;-91
2023/12/11 10:50:02;;;;;;;;;;;10.30;99.90;;;;;;5072444;28;19923;-91
2023/12/11 10:52:28;;;;;;;;;;;10.30;99.90;;;;;;5070746;28;20019;-91
2023/12/11 10:54:54;;;;;;;;;;;10.30;99.90;;;;;;5068030;28;19921;-90
2023/12/11 10:57:22;;;;;;;;;;;10.40;99.90;;;;;;5066909;28;19916;-90
2023/12/11 10:59:50;;;;;;;;;;;10.30;99.90;;;;;;5072073;28;19958;-89
2023/12/11 11:02:17;;;;;;;;;;;10.40;99.90;;;;;;5071475;28;19920;-90
2023/12/11 11:04:44;;;;;;;;;;;10.30;99.90;;;;;;5089859;28;19920;-91
2023/12/11 11:07:19;;;;;;;;;;;10.20;99.90;;;;;;5074109;28;19924;-91
2023/12/11 11:09:50;;;;;;;;;;;10.20;99.90;;;;;;5075456;28;19916;-88
2023/12/11 11:12:27;;;;;;;;;;;10.30;99.90;;;;;;5072409;28;19916;-89
2023/12/11 11:14:53;;;;;;;;;;;10.20;99.90;;;;;;5075305;28;19931;-92
2023/12/11 11:17:18;;;;;;;;;;;10.20;99.90;;;;;;5072870;28;20315;-89
2023/12/11 11:20:03;;;;;;;;;;;10.30;99.90;;;;;;5071148;28;19923;-91
2023/12/11 11:22:29;;;;;;;;;;;10.30;99.90;;;;;;5071081;28;19920;-89
2023/12/11 11:24:55;;;;;;;;;;;10.20;99.90;;;;;;5072875;28;19921;-88
2023/12/11 11:27:39;;;;;;;;;;;10.30;99.90;;;;;;5072452;28;19916;-88
2023/12/11 11:30:05;;;;;;;;;;;10.30;99.90;;;;;;5070527;28;19920;-87
2023/12/11 11:32:50;;;;;;;;;;;10.30;99.90;;;;;;5071179;28;20303;-92
2023/12/11 11:35:34;;;;;;;;;;;10.30;99.90;;;;;;5070163;28;19920;-91
2023/12/11 11:38:00;;;;;;;;;;;10.30;99.90;;;;;;5071730;28;19920;-88
2023/12/11 11:40:35;;;;;;;;;;;10.20;99.90;;;;;;5070609;28;19967;-90
2023/12/11 11:43:01;;;;;;;;;;;10.30;99.90;;;;;;5074260;28;19928;-90
2023/12/11 11:45:27;;;;;;;;;;;10.30;99.90;;;;;;5089420;28;19919;-89
2023/12/11 11:47:52;;;;;;;;;;;10.30;99.90;;;;;;5072585;28;20166;-89
2023/12/11 11:50:19;;;;;;;;;;;10.30;99.90;;;;;;5075211;28;19923;-91
2023/12/11 11:52:53;;;;;;;;;;;10.40;99.90;;;;;;5063159;28;20076;-90
2023/12/11 11:55:24;;;;;;;;;;;10.30;99.90;;;;;;5069892;28;20068;-89
2023/12/11 11:57:50;;;;;;;;;;;10.30;99.90;;;;;;5092697;27;19952;-89
2023/12/11 12:00:23;;;;;;;;;;;10.30;99.90;;;;;;5075238;28;19971;-89
2023/12/11 12:02:56;;;;;;;;;;;10.30;99.90;;;;;;5075511;28;19920;-90
2023/12/11 12:05:22;;;;;;;;;;;10.30;99.90;;;;;;5075530;28;19955;-87
2023/12/11 12:07:49;;;;;;;;;;;10.20;99.90;;;;;;5077570;28;20011;-91
2023/12/11 12:10:16;;;;;;;;;;;10.20;99.90;;;;;;5067661;28;20048;-92
2023/12/11 12:12:42;;;;;;;;;;;10.20;99.90;;;;;;5062683;28;20143;-93
2023/12/11 12:15:08;;;;;;;;;;;10.20;99.90;;;;;;5075941;28;20022;-93
2023/12/11 12:17:34;;;;;;;;;;;10.20;99.90;;;;;;5095389;27;19944;-93
2023/12/11 12:20:10;;;;;;;;;;;10.20;99.90;;;;;;5061755;28;19924;-93
2023/12/11 12:22:35;;;;;;;;;;;10.30;99.90;;;;;;5076100;28;19916;-91
2023/12/11 12:25:02;;;;;;;;;;;10.30;99.90;;;;;;5076602;28;21551;-92
2023/12/11 12:27:28;;;;;;;;;;;10.20;99.90;;;;;;5075438;28;20596;-92
2023/12/11 12:29:54;;;;;;;;;;;10.20;99.90;;;;;;5076847;28;19920;-94
2023/12/11 12:32:20;;;;;;;;;;;10.20;99.90;;;;;;5092214;27;19931;-91
2023/12/11 12:34:46;;;;;;;;;;;10.10;99.90;;;;;;5077291;28;19920;-93
2023/12/11 12:37:13;;;;;;;;;;;10.10;99.90;;;;;;5077354;28;19920;-92
2023/12/11 12:39:38;;;;;;;;;;;10.10;99.90;;;;;;5075498;28;19924;-89
2023/12/11 12:42:04;;;;;;;;;;;10.10;99.90;;;;;;5075815;28;19965;-93
2023/12/11 12:44:37;;;;;;;;;;;10.00;99.90;;;;;;5090377;28;19921;-91
2023/12/11 12:47:03;;;;;;;;;;;10.00;99.90;;;;;;5074491;28;19920;-88
2023/12/11 12:49:30;;;;;;;;;;;10.00;99.90;;;;;;5074421;28;19924;-90
2023/12/11 12:51:55;;;;;;;;;;;10.00;99.90;;;;;;5082993;28;20284;-92
2023/12/11 12:54:21;;;;;;;;;;;10.00;99.90;;;;;;5079664;28;19938;-93
2023/12/11 12:56:55;;;;;;;;;;;9.90;99.90;;;;;;5076639;28;19919;-94
2023/12/11 12:59:23;;;;;;;;;;;9.90;99.90;;;;;;5080910;28;19927;-93
2023/12/11 13:01:49;;;;;;;;;;;9.90;99.90;;;;;;5074761;28;20074;-92
2023/12/11 13:04:14;;;;;;;;;;;10.00;99.90;;;;;;5074154;28;19916;-89
2023/12/11 13:06:41;;;;;;;;;;;9.90;99.90;;;;;;5073615;28;20672;-91
2023/12/11 13:09:08;;;;;;;;;;;9.90;99.90;;;;;;5072713;28;20023;-91
2023/12/11 13:11:42;;;;;;;;;;;9.90;99.90;;;;;;5074178;28;19928;-90
2023/12/11 13:14:08;;;;;;;;;;;9.90;99.90;;;;;;5078896;28;20007;-90
2023/12/11 13:16:33;;;;;;;;;;;9.90;99.90;;;;;;5057205;28;20058;-91
2023/12/11 13:19:01;;;;;;;;;;;9.90;99.90;;;;;;5071518;28;19920;-92
2023/12/11 13:21:27;;;;;;;;;;;9.90;99.90;;;;;;5074759;28;22011;-91
2023/12/11 13:23:53;;;;;;;;;;;9.90;99.90;;;;;;5074755;28;19920;-91
2023/12/11 13:26:18;;;;;;;;;;;9.80;99.90;;;;;;5070925;28;19923;-90
2023/12/11 13:28:44;;;;;;;;;;;9.90;99.90;;;;;;5074043;28;20521;-93
2023/12/11 13:31:09;;;;;;;;;;;9.80;99.90;;;;;;5074408;28;19927;-90
2023/12/11 13:33:35;;;;;;;;;;;9.90;99.90;;;;;;5072445;28;19916;-91
2023/12/11 13:36:01;;;;;;;;;;;9.90;99.90;;;;;;5072789;28;20374;-90
2023/12/11 13:38:27;;;;;;;;;;;9.90;99.90;;;;;;5075795;28;19920;-90
2023/12/11 13:40:53;;;;;;;;;;;9.90;99.90;;;;;;5071184;28;21584;-93
2023/12/11 13:43:18;;;;;;;;;;;9.90;99.90;;;;;;5072221;28;19958;-91
2023/12/11 13:45:44;;;;;;;;;;;9.90;99.90;;;;;;5073354;28;19917;-92
2023/12/11 13:48:09;;;;;;;;;;;9.90;99.90;;;;;;5073349;28;19920;-90
2023/12/11 13:50:38;;;;;;;;;;;10.00;99.90;;;;;;5073080;28;20352;-91
2023/12/11 13:53:03;;;;;;;;;;;10.00;99.90;;;;;;5078557;28;20184;-89
2023/12/11 13:55:29;;;;;;;;;;;10.00;99.90;;;;;;5074136;28;20406;-90
2023/12/11 13:57:55;;;;;;;;;;;10.10;99.90;;;;;;5074815;28;20400;-91
2023/12/11 14:00:20;;;;;;;;;;;10.00;99.90;;;;;;5075592;28;20443;-90
2023/12/11 14:02:46;;;;;;;;;;;10.10;99.90;;;;;;5077777;28;19912;-91
2023/12/11 14:05:12;;;;;;;;;;;10.10;99.90;;;;;;5071362;28;20295;-91
2023/12/11 14:07:37;;;;;;;;;;;10.10;99.90;;;;;;5074639;28;20014;-91
2023/12/11 14:10:05;;;;;;;;;;;10.10;99.90;;;;;;5075932;28;20020;-90
2023/12/11 14:12:30;;;;;;;;;;;10.10;99.90;;;;;;5074352;28;20364;-89
2023/12/11 14:14:56;;;;;;;;;;;10.10;99.90;;;;;;5068776;28;19920;-89